createdAt,value
2019-01-20T00:02:38.048Z,10.77
2019-01-20T00:05:09.310Z,12.27
2019-01-20T00:07:42.122Z,15.93
2019-01-20T00:10:13.009Z,12.43
2019-01-20T00:12:43.626Z,13.23
2019-01-20T00:15:14.657Z,19.27
2019-01-20T00:17:44.890Z,18.13
2019-01-20T00:20:15.172Z,15.17
2019-01-20T00:22:45.958Z,19.40
2019-01-20T00:25:16.871Z,18.50
2019-01-20T00:27:47.271Z,11.40
2019-01-20T00:30:18.101Z,15.27
2019-01-20T00:32:51.705Z,11.43
2019-01-20T00:35:23.989Z,20.87
2019-01-20T00:37:56.069Z,16.23
2019-01-20T00:40:26.702Z,21.70
2019-01-20T00:43:00.378Z,20.10
2019-01-20T00:45:32.529Z,16.77
2019-01-20T00:48:03.557Z,15.70
2019-01-20T00:50:36.168Z,18.03
2019-01-20T00:53:06.549Z,17.97
2019-01-20T00:55:37.901Z,12.57
2019-01-20T00:58:08.656Z,17.60
2019-01-20T01:00:42.586Z,13.53
2019-01-20T01:03:12.774Z,14.33
2019-01-20T01:05:43.241Z,10.10
2019-01-20T01:08:14.485Z,16.20
2019-01-20T01:10:46.632Z,14.77
2019-01-20T01:13:19.882Z,15.10
2019-01-20T01:15:51.910Z,14.37
2019-01-20T01:18:23.205Z,12.00
2019-01-20T01:20:53.610Z,10.63
2019-01-20T01:23:24.409Z,11.73
2019-01-20T01:25:55.507Z,12.17
2019-01-20T01:28:27.478Z,12.37
2019-01-20T01:30:57.800Z,13.00
2019-01-20T01:33:28.341Z,11.47
2019-01-20T01:35:58.938Z,14.83
2019-01-20T01:38:34.689Z,9.90
2019-01-20T01:41:09.110Z,13.43
2019-01-20T01:43:39.795Z,14.40
2019-01-20T01:46:10.451Z,10.20
2019-01-20T01:48:40.778Z,22.93
2019-01-20T01:51:11.527Z,11.20
2019-01-20T01:53:44.509Z,14.07
2019-01-20T01:56:14.856Z,10.90
2019-01-20T01:58:45.281Z,12.00
2019-01-20T02:01:15.566Z,8.33
2019-01-20T02:03:46.185Z,10.83
2019-01-20T02:06:16.504Z,9.10
2019-01-20T02:08:47.119Z,8.73
2019-01-20T02:11:17.627Z,7.30
2019-01-20T02:13:48.385Z,8.97
2019-01-20T02:16:21.697Z,7.90
2019-01-20T02:18:52.167Z,12.90
2019-01-20T02:21:24.039Z,11.03
2019-01-20T02:23:54.816Z,12.70
2019-01-20T02:26:25.789Z,6.37
2019-01-20T02:28:56.122Z,8.97
2019-01-20T02:31:26.493Z,10.67
2019-01-20T02:33:56.961Z,10.63
2019-01-20T02:36:27.298Z,11.40
2019-01-20T02:38:57.721Z,7.73
2019-01-20T02:41:28.411Z,10.43
2019-01-20T02:43:58.637Z,8.10
2019-01-20T02:46:28.889Z,11.90
2019-01-20T02:48:59.773Z,9.90
2019-01-20T02:51:30.022Z,11.10
2019-01-20T02:54:00.377Z,8.20
2019-01-20T02:56:30.757Z,8.67
2019-01-20T02:59:01.570Z,11.57
2019-01-20T03:01:32.033Z,13.17
2019-01-20T03:04:02.653Z,10.23
2019-01-20T03:06:32.838Z,10.20
2019-01-20T03:09:05.090Z,8.67
2019-01-20T03:11:35.822Z,7.87
2019-01-20T03:14:06.502Z,11.30
2019-01-20T03:16:36.809Z,11.30
2019-01-20T03:19:07.597Z,9.60
2019-01-20T03:21:37.921Z,5.93
2019-01-20T03:24:08.922Z,7.63
2019-01-20T03:26:39.330Z,7.47
2019-01-20T03:29:09.579Z,9.77
2019-01-20T03:31:39.796Z,6.93
2019-01-20T03:34:10.237Z,12.47
2019-01-20T03:36:40.641Z,7.73
2019-01-20T03:39:10.973Z,10.80
2019-01-20T03:41:41.965Z,8.50
2019-01-20T03:44:12.163Z,10.00
2019-01-20T03:46:42.558Z,10.37
2019-01-20T03:49:13.634Z,9.03
2019-01-20T03:51:43.996Z,7.50
2019-01-20T03:54:14.292Z,9.30
2019-01-20T03:56:44.837Z,12.63
2019-01-20T03:59:15.583Z,9.20
2019-01-20T04:01:46.250Z,6.33
2019-01-20T04:04:17.266Z,7.73
2019-01-20T04:06:48.057Z,7.47
2019-01-20T04:09:18.417Z,6.93
2019-01-20T04:11:49.031Z,7.90
2019-01-20T04:14:19.370Z,10.53
2019-01-20T04:16:49.689Z,8.10
2019-01-20T04:19:20.096Z,6.90
2019-01-20T04:21:50.381Z,7.20
2019-01-20T04:24:20.841Z,7.07
2019-01-20T04:26:51.434Z,7.00
2019-01-20T04:29:21.667Z,8.00
2019-01-20T04:31:51.966Z,6.17
2019-01-20T04:34:22.500Z,5.97
2019-01-20T04:36:52.926Z,8.60
2019-01-20T04:39:24.064Z,7.23
2019-01-20T04:41:54.515Z,9.77
2019-01-20T04:44:24.843Z,8.03
2019-01-20T04:46:55.274Z,8.63
2019-01-20T04:49:26.407Z,10.43
2019-01-20T04:51:56.870Z,7.90
2019-01-20T04:54:27.702Z,8.57
2019-01-20T04:57:22.110Z,7.50
2019-01-20T04:59:52.550Z,7.13
2019-01-20T05:02:22.946Z,6.40
2019-01-20T05:04:53.464Z,7.93
2019-01-20T05:07:24.055Z,7.70
2019-01-20T05:09:54.366Z,10.23
2019-01-20T05:12:25.193Z,8.10
2019-01-20T05:14:55.578Z,12.33
2019-01-20T05:17:25.801Z,5.00
2019-01-20T05:19:56.434Z,9.10
2019-01-20T05:22:26.883Z,7.80
2019-01-20T05:24:57.138Z,8.90
2019-01-20T05:27:28.074Z,5.00
2019-01-20T05:29:58.414Z,6.83
2019-01-20T05:32:28.807Z,7.93
2019-01-20T05:34:59.213Z,9.50
2019-01-20T05:37:29.522Z,7.63
2019-01-20T05:39:59.958Z,7.67
2019-01-20T05:42:30.796Z,8.20
2019-01-20T05:45:01.302Z,6.30
2019-01-20T05:47:31.713Z,6.53
2019-01-20T05:50:02.466Z,9.67
2019-01-20T05:52:33.399Z,8.40
2019-01-20T05:55:03.958Z,10.77
2019-01-20T05:57:35.654Z,7.53
2019-01-20T06:00:09.695Z,7.00
2019-01-20T06:02:40.615Z,6.07
2019-01-20T06:05:11.284Z,5.90
2019-01-20T06:07:41.592Z,5.83
2019-01-20T06:10:13.883Z,10.87
2019-01-20T06:12:45.411Z,8.67
2019-01-20T06:15:18.752Z,7.00
2019-01-20T06:17:49.745Z,7.00
2019-01-20T06:20:21.037Z,8.50
2019-01-20T06:22:51.603Z,8.37
2019-01-20T06:25:23.148Z,5.23
2019-01-20T06:27:54.043Z,6.97
2019-01-20T06:30:33.844Z,22.07
2019-01-20T06:33:06.992Z,6.97
2019-01-20T06:35:37.928Z,9.80
2019-01-20T06:38:08.997Z,9.23
2019-01-20T06:40:40.940Z,11.00
2019-01-20T06:43:11.685Z,8.87
2019-01-20T06:45:43.307Z,10.03
2019-01-20T06:48:13.597Z,8.70
2019-01-20T06:50:44.893Z,10.07
2019-01-20T06:53:16.396Z,7.93
2019-01-20T06:55:46.801Z,10.50
2019-01-20T06:58:19.385Z,9.83
2019-01-20T07:00:51.197Z,15.20
2019-01-20T07:03:22.205Z,10.20
2019-01-20T07:05:53.576Z,7.00
2019-01-20T07:08:24.595Z,9.63
2019-01-20T07:10:55.758Z,11.33
2019-01-20T07:13:26.919Z,9.50
2019-01-20T07:15:58.206Z,9.30
2019-01-20T07:18:31.208Z,7.00
2019-01-20T07:21:04.491Z,9.10
2019-01-20T07:23:36.783Z,11.17
2019-01-20T07:26:08.811Z,10.47
2019-01-20T07:28:45.383Z,8.50
2019-01-20T07:31:16.074Z,8.73
2019-01-20T07:33:48.206Z,9.23
2019-01-20T07:36:21.503Z,13.10
2019-01-20T07:38:52.520Z,10.90
2019-01-20T07:41:25.082Z,9.60
2019-01-20T07:43:55.972Z,11.90
2019-01-20T07:46:26.464Z,7.70
2019-01-20T07:48:56.806Z,11.13
2019-01-20T07:51:27.500Z,12.63
2019-01-20T07:53:59.508Z,8.70
2019-01-20T07:56:29.981Z,7.67
2019-01-20T07:59:00.893Z,9.80
2019-01-20T08:01:31.193Z,6.70
2019-01-20T08:04:02.067Z,7.10
2019-01-20T08:06:35.008Z,10.23
2019-01-20T08:09:10.998Z,10.67
2019-01-20T08:11:41.380Z,9.50
2019-01-20T08:14:11.727Z,9.80
2019-01-20T08:16:44.431Z,15.17
2019-01-20T08:19:15.045Z,8.63
2019-01-20T08:21:46.921Z,12.00
2019-01-20T08:24:17.162Z,13.43
2019-01-20T08:26:48.194Z,8.63
2019-01-20T08:29:18.553Z,9.90
2019-01-20T08:31:50.829Z,12.17
2019-01-20T08:34:21.452Z,12.90
2019-01-20T08:36:55.988Z,12.00
2019-01-20T08:39:29.030Z,13.83
2019-01-20T08:42:00.216Z,14.40
2019-01-20T08:44:33.702Z,17.47
2019-01-20T08:47:29.841Z,17.23
2019-01-20T08:50:00.183Z,20.57
2019-01-20T08:52:30.497Z,24.10
2019-01-20T08:55:02.677Z,21.70
2019-01-20T08:57:34.897Z,23.63
2019-01-20T09:00:06.579Z,37.47
2019-01-20T09:02:37.378Z,38.10
2019-01-20T09:05:07.868Z,47.53
2019-01-20T09:07:38.125Z,34.63
2019-01-20T09:10:19.637Z,29.70
2019-01-20T09:12:50.267Z,22.77
2019-01-20T09:15:27.363Z,25.10
2019-01-20T09:17:57.668Z,26.10
2019-01-20T09:20:28.215Z,20.93
2019-01-20T09:22:58.590Z,22.90
2019-01-20T09:25:29.028Z,24.13
2019-01-20T09:28:01.041Z,26.97
2019-01-20T09:30:31.790Z,20.83
2019-01-20T09:33:02.249Z,20.00
2019-01-20T09:35:34.731Z,19.30
2019-01-20T09:38:05.834Z,17.23
2019-01-20T09:40:36.330Z,23.80
2019-01-20T09:43:09.244Z,19.67
2019-01-20T09:45:40.441Z,22.33
2019-01-20T09:48:11.029Z,19.40
2019-01-20T09:50:41.217Z,21.80
2019-01-20T09:53:11.673Z,25.33
2019-01-20T09:55:46.667Z,18.63
2019-01-20T09:58:19.870Z,19.13
2019-01-20T10:00:54.295Z,23.00
2019-01-20T10:03:33.462Z,21.30
2019-01-20T10:06:05.976Z,21.10
2019-01-20T10:08:36.669Z,25.30
2019-01-20T10:11:06.965Z,21.30
2019-01-20T10:13:41.179Z,20.93
2019-01-20T10:16:11.532Z,18.70
2019-01-20T10:18:42.581Z,20.50
2019-01-20T10:21:13.405Z,19.80
2019-01-20T10:23:46.681Z,24.63
2019-01-20T10:26:18.111Z,20.83
2019-01-20T10:28:48.561Z,19.87
2019-01-20T10:31:20.808Z,24.17
2019-01-20T10:33:52.081Z,18.20
2019-01-20T10:36:22.891Z,22.83
2019-01-20T10:38:53.170Z,19.43
2019-01-20T10:41:23.573Z,19.00
2019-01-20T10:44:02.152Z,18.60
2019-01-20T10:46:28.709Z,17.97
2019-01-20T10:49:00.414Z,20.03
2019-01-20T10:51:30.925Z,21.03
2019-01-20T10:54:02.034Z,22.30
2019-01-20T10:56:33.202Z,18.20
2019-01-20T10:59:06.515Z,20.50
2019-01-20T11:01:44.054Z,20.20
2019-01-20T11:04:17.232Z,19.57
2019-01-20T11:06:47.552Z,19.97
2019-01-20T11:09:17.822Z,22.70
2019-01-20T11:11:48.294Z,20.80
2019-01-20T11:14:18.955Z,16.60
2019-01-20T11:16:49.897Z,19.13
2019-01-20T11:19:23.276Z,17.87
2019-01-20T11:21:56.756Z,19.13
2019-01-20T11:24:27.297Z,20.83
2019-01-20T11:26:57.584Z,20.50
2019-01-20T11:29:30.045Z,20.20
2019-01-20T11:32:01.114Z,19.27
2019-01-20T11:34:34.367Z,21.40
2019-01-20T11:37:06.413Z,18.20
2019-01-20T11:39:36.637Z,24.70
2019-01-20T11:42:07.393Z,19.27
2019-01-20T11:44:38.782Z,21.17
2019-01-20T11:47:12.475Z,22.90
2019-01-20T11:49:42.922Z,18.80
2019-01-20T11:52:13.553Z,23.10
2019-01-20T11:54:46.437Z,19.90
2019-01-20T11:57:27.045Z,18.93
2019-01-20T12:00:07.287Z,18.80
2019-01-20T12:02:37.773Z,17.83
2019-01-20T12:05:09.738Z,17.30
2019-01-20T12:07:40.245Z,17.17
2019-01-20T12:10:16.350Z,19.13
2019-01-20T12:12:55.005Z,18.00
2019-01-20T12:15:26.274Z,17.67
2019-01-20T12:17:56.686Z,18.43
2019-01-20T12:20:27.466Z,21.20
2019-01-20T12:23:01.658Z,21.13
2019-01-20T12:25:32.328Z,20.33
2019-01-20T12:28:05.516Z,20.93
2019-01-20T12:30:39.808Z,21.13
2019-01-20T12:33:10.770Z,24.07
2019-01-20T12:35:41.014Z,17.87
2019-01-20T12:38:12.377Z,16.60
2019-01-20T12:40:47.781Z,16.80
2019-01-20T12:43:18.384Z,15.50
2019-01-20T12:45:51.446Z,17.23
2019-01-20T12:48:27.611Z,14.23
2019-01-20T12:51:02.369Z,16.97
2019-01-20T12:53:33.070Z,19.07
2019-01-20T12:56:03.259Z,22.63
2019-01-20T12:58:35.320Z,20.50
2019-01-20T13:01:09.253Z,21.63
2019-01-20T13:03:41.442Z,31.73
2019-01-20T13:06:14.982Z,22.50
2019-01-20T13:08:47.341Z,19.03
2019-01-20T13:11:17.815Z,14.20
2019-01-20T13:13:49.452Z,15.07
2019-01-20T13:16:23.169Z,18.43
2019-01-20T13:18:54.063Z,18.50
2019-01-20T13:21:24.509Z,14.97
2019-01-20T13:23:58.366Z,17.17
2019-01-20T13:26:29.053Z,15.93
2019-01-20T13:28:59.398Z,16.03
2019-01-20T13:31:32.661Z,20.53
2019-01-20T13:34:03.193Z,20.90
2019-01-20T13:36:34.188Z,19.43
2019-01-20T13:39:11.695Z,22.37
2019-01-20T13:41:54.037Z,24.50
2019-01-20T13:44:24.767Z,22.00
2019-01-20T13:46:58.289Z,26.20
2019-01-20T13:49:29.111Z,30.87
2019-01-20T13:51:59.914Z,22.80
2019-01-20T13:54:46.754Z,27.93
2019-01-20T13:57:29.451Z,28.60
2019-01-20T14:00:00.203Z,25.73
2019-01-20T14:02:30.934Z,34.90
2019-01-20T14:05:03.894Z,33.07
2019-01-20T14:07:34.925Z,27.90
2019-01-20T14:10:06.592Z,28.03
2019-01-20T14:12:40.258Z,31.07
2019-01-20T14:15:11.794Z,28.73
2019-01-20T14:17:42.580Z,31.40
2019-01-20T14:20:23.675Z,31.00
2019-01-20T14:22:56.969Z,30.10
2019-01-20T14:25:30.981Z,28.70
2019-01-20T14:28:01.478Z,32.00
2019-01-20T14:30:32.653Z,32.07
2019-01-20T14:33:05.005Z,30.53
2019-01-20T14:35:35.945Z,31.20
2019-01-20T14:38:06.600Z,32.73
2019-01-20T14:40:37.889Z,29.73
2019-01-20T14:43:08.540Z,31.40
2019-01-20T14:45:39.278Z,25.40
2019-01-20T14:48:13.027Z,25.83
2019-01-20T14:50:43.606Z,33.80
2019-01-20T14:53:14.089Z,29.90
2019-01-20T14:56:21.412Z,29.23
2019-01-20T14:58:52.239Z,30.30
2019-01-20T15:01:25.388Z,29.50
2019-01-20T15:03:59.283Z,30.70
2019-01-20T15:06:29.730Z,37.07
2019-01-20T15:09:30.862Z,32.60
2019-01-20T15:12:20.721Z,32.27
2019-01-20T15:14:52.525Z,34.80
2019-01-20T15:17:23.157Z,32.57
2019-01-20T15:19:54.790Z,35.73
2019-01-20T15:22:25.361Z,36.43
2019-01-20T15:24:56.075Z,38.13
2019-01-20T15:27:29.635Z,34.53
2019-01-20T15:30:26.069Z,37.67
2019-01-20T15:33:01.146Z,37.93
2019-01-20T15:35:34.342Z,33.77
2019-01-20T15:38:16.805Z,37.93
2019-01-20T15:40:49.886Z,35.67
2019-01-20T15:43:23.470Z,46.53
2019-01-20T15:45:57.409Z,37.27
2019-01-20T15:48:33.329Z,36.00
2019-01-20T15:51:05.783Z,38.67
2019-01-20T15:53:37.289Z,39.37
2019-01-20T15:56:07.797Z,42.87
2019-01-20T15:58:42.654Z,36.67
2019-01-20T16:01:17.922Z,33.80
2019-01-20T16:03:49.045Z,36.80
2019-01-20T16:06:19.857Z,39.13
2019-01-20T16:08:52.105Z,38.87
2019-01-20T16:11:25.153Z,39.73
2019-01-20T16:13:57.597Z,34.23
2019-01-20T16:16:28.067Z,34.40
2019-01-20T16:18:59.834Z,40.50
2019-01-20T16:21:36.695Z,36.60
2019-01-20T16:24:11.619Z,31.33
2019-01-20T16:26:55.627Z,33.63
2019-01-20T16:29:29.433Z,35.70
2019-01-20T16:32:01.012Z,30.77
2019-01-20T16:34:31.522Z,32.00
2019-01-20T16:37:03.224Z,36.43
2019-01-20T16:39:36.624Z,30.93
2019-01-20T16:42:15.685Z,37.83
2019-01-20T16:44:46.501Z,35.13
2019-01-20T16:47:17.278Z,31.43
2019-01-20T16:49:47.587Z,39.30
2019-01-20T16:52:37.529Z,36.30
2019-01-20T16:55:08.325Z,45.27
2019-01-20T16:57:39.130Z,39.43
2019-01-20T17:00:21.470Z,38.27
2019-01-20T17:02:52.505Z,33.30
2019-01-20T17:05:27.210Z,41.93
2019-01-20T17:07:58.553Z,35.13
2019-01-20T17:10:35.595Z,43.50
2019-01-20T17:13:07.570Z,34.43
2019-01-20T17:15:44.358Z,36.70
2019-01-20T17:18:17.686Z,37.47
2019-01-20T17:20:48.585Z,39.67
2019-01-20T17:23:19.081Z,37.20
2019-01-20T17:25:53.450Z,38.97
2019-01-20T17:28:24.126Z,43.37
2019-01-20T17:30:59.625Z,44.60
2019-01-20T17:33:35.474Z,41.27
2019-01-20T17:36:12.626Z,46.90
2019-01-20T17:38:48.183Z,42.97
2019-01-20T17:41:21.208Z,48.23
2019-01-20T17:43:54.473Z,44.47
2019-01-20T17:46:26.262Z,45.97
2019-01-20T17:49:03.418Z,38.90
2019-01-20T17:51:40.266Z,43.80
2019-01-20T17:54:16.985Z,39.93
2019-01-20T17:56:56.237Z,39.73
2019-01-20T17:59:29.484Z,37.07
2019-01-20T18:02:06.723Z,42.50
2019-01-20T18:04:42.043Z,41.57
2019-01-20T18:07:17.588Z,43.03
2019-01-20T18:09:45.620Z,47.37
2019-01-20T18:12:18.889Z,43.43
2019-01-20T18:14:56.909Z,51.03
2019-01-20T18:17:27.963Z,49.17
2019-01-20T18:20:00.809Z,47.97
2019-01-20T18:22:33.055Z,53.47
2019-01-20T18:25:04.618Z,43.10
2019-01-20T18:27:35.676Z,48.53
2019-01-20T18:30:09.729Z,48.77
2019-01-20T18:32:44.520Z,52.07
2019-01-20T18:35:15.516Z,41.90
2019-01-20T18:37:48.746Z,54.37
2019-01-20T18:40:22.813Z,48.93
2019-01-20T18:42:53.708Z,49.27
2019-01-20T18:45:27.680Z,39.83
2019-01-20T18:47:58.809Z,42.53
2019-01-20T18:50:32.319Z,44.23
2019-01-20T18:53:03.637Z,51.33
2019-01-20T18:55:39.332Z,47.27
2019-01-20T18:58:10.020Z,63.90
2019-01-20T19:00:47.230Z,48.53
2019-01-20T19:03:17.595Z,48.93
2019-01-20T19:05:48.682Z,52.60
2019-01-20T19:08:19.216Z,48.47
2019-01-20T19:10:49.448Z,57.23
2019-01-20T19:13:20.777Z,53.07
2019-01-20T19:15:55.096Z,58.87
2019-01-20T19:18:25.568Z,61.60
2019-01-20T19:20:59.375Z,60.60
2019-01-20T19:23:32.455Z,58.53
2019-01-20T19:26:03.349Z,56.27
2019-01-20T19:28:34.039Z,84.77
2019-01-20T19:31:07.891Z,54.57
2019-01-20T19:33:43.597Z,72.27
2019-01-20T19:36:19.837Z,70.23
2019-01-20T19:38:50.689Z,60.57
2019-01-20T19:41:21.439Z,61.60
2019-01-20T19:43:54.746Z,55.07
2019-01-20T19:46:29.027Z,55.87
2019-01-20T19:49:00.830Z,54.97
2019-01-20T19:51:32.543Z,61.37
2019-01-20T19:54:07.417Z,56.60
2019-01-20T19:56:40.487Z,50.47
2019-01-20T19:59:14.841Z,49.60
2019-01-20T20:01:50.029Z,56.33
2019-01-20T20:04:20.434Z,48.37
2019-01-20T20:06:50.978Z,52.43
2019-01-20T20:09:21.444Z,59.00
2019-01-20T20:11:53.854Z,44.97
2019-01-20T20:14:26.089Z,48.70
2019-01-20T20:16:56.686Z,49.10
2019-01-20T20:19:27.253Z,59.63
2019-01-20T20:21:57.887Z,52.83
2019-01-20T20:24:29.633Z,58.40
2019-01-20T20:27:01.295Z,53.13
2019-01-20T20:29:31.770Z,58.43
2019-01-20T20:32:02.232Z,53.20
2019-01-20T20:34:32.888Z,64.17
2019-01-20T20:37:03.825Z,65.83
2019-01-20T20:39:34.456Z,64.50
2019-01-20T20:42:05.012Z,69.87
2019-01-20T20:44:36.013Z,69.20
2019-01-20T20:47:06.432Z,62.10
2019-01-20T20:49:38.525Z,66.23
2019-01-20T20:52:08.939Z,59.83
2019-01-20T20:54:43.762Z,58.53
2019-01-20T20:57:21.331Z,62.33
2019-01-20T20:59:54.429Z,61.47
2019-01-20T21:04:56.707Z,60.17
2019-01-20T21:07:27.370Z,52.27
2019-01-20T21:09:57.726Z,60.83
2019-01-20T21:12:28.180Z,49.93
2019-01-20T21:15:03.379Z,47.10
2019-01-20T21:17:33.641Z,53.90
2019-01-20T21:20:05.236Z,57.33
2019-01-20T21:22:38.713Z,50.60
2019-01-20T21:25:13.077Z,61.97
2019-01-20T21:27:43.871Z,47.17
2019-01-20T21:30:17.105Z,53.20
2019-01-20T21:32:47.647Z,59.30
2019-01-20T21:35:19.401Z,47.03
2019-01-20T21:37:50.524Z,59.03
2019-01-20T21:40:23.418Z,50.10
2019-01-20T21:42:55.811Z,51.00
2019-01-20T21:45:26.306Z,41.83
2019-01-20T21:47:59.929Z,53.70
2019-01-20T21:50:37.079Z,52.27
2019-01-20T21:53:07.975Z,46.50
2019-01-20T21:55:40.510Z,50.97
2019-01-20T21:58:10.839Z,55.10
2019-01-20T22:00:42.665Z,58.57
2019-01-20T22:03:12.907Z,53.37
2019-01-20T22:05:47.356Z,51.33
2019-01-20T22:08:17.673Z,61.47
2019-01-20T22:10:48.068Z,60.10
2019-01-20T22:13:20.902Z,55.57
2019-01-20T22:15:51.278Z,60.37
2019-01-20T22:18:21.671Z,57.20
2019-01-20T22:20:52.157Z,54.03
2019-01-20T22:23:22.749Z,60.10
2019-01-20T22:25:53.284Z,56.27
2019-01-20T22:28:23.897Z,53.70
2019-01-20T22:30:57.085Z,50.60
2019-01-20T22:33:27.791Z,57.13
2019-01-20T22:35:58.098Z,53.83
2019-01-20T22:38:28.850Z,60.03
2019-01-20T22:40:59.490Z,58.67
2019-01-20T22:43:29.909Z,56.03
2019-01-20T22:46:00.470Z,56.13
2019-01-20T22:48:31.510Z,64.17
2019-01-20T22:51:02.010Z,52.10
2019-01-20T22:53:32.891Z,53.67
2019-01-20T22:56:03.309Z,60.03
2019-01-20T22:58:33.730Z,70.03
2019-01-20T23:01:21.269Z,63.03
2019-01-20T23:03:51.422Z,53.07
2019-01-20T23:06:21.638Z,65.03
2019-01-20T23:08:52.138Z,69.60
2019-01-20T23:11:22.354Z,76.27
2019-01-20T23:13:52.609Z,56.60
2019-01-20T23:16:25.502Z,56.83
2019-01-20T23:18:55.919Z,53.70
2019-01-20T23:21:26.383Z,52.23
2019-01-20T23:23:58.627Z,50.97
2019-01-20T23:26:32.006Z,52.67
2019-01-20T23:29:02.496Z,53.80
2019-01-20T23:31:34.928Z,56.00
2019-01-20T23:34:05.949Z,53.20
2019-01-20T23:36:36.263Z,51.40
2019-01-20T23:39:08.714Z,48.40
2019-01-20T23:41:38.975Z,51.47
2019-01-20T23:44:09.129Z,52.80
2019-01-20T23:46:40.190Z,48.77
2019-01-20T23:49:10.818Z,55.23
2019-01-20T23:51:44.253Z,45.10
2019-01-20T23:54:14.736Z,53.40
2019-01-20T23:56:45.052Z,46.00
2019-01-20T23:59:15.640Z,48.27
